sensor_id;sensor_type;location;lat;lon;timestamp;P1;durP1;ratioP1;P2;durP2;ratioP2
57395;SDS011;43222;52.912;6.940;2023-03-08T00:00:12;5.95;;;2.50;;
57395;SDS011;43222;52.912;6.940;2023-03-08T00:02:38;6.70;;;2.22;;
57395;SDS011;43222;52.912;6.940;2023-03-08T00:05:05;5.38;;;2.35;;
57395;SDS011;43222;52.912;6.940;2023-03-08T00:07:31;5.22;;;2.33;;
57395;SDS011;43222;52.912;6.940;2023-03-08T00:09:57;5.55;;;2.22;;
57395;SDS011;43222;52.912;6.940;2023-03-08T00:12:23;8.07;;;2.70;;
57395;SDS011;43222;52.912;6.940;2023-03-08T00:14:49;5.55;;;2.05;;
57395;SDS011;43222;52.912;6.940;2023-03-08T00:17:16;6.88;;;2.60;;
57395;SDS011;43222;52.912;6.940;2023-03-08T00:19:43;6.97;;;2.33;;
57395;SDS011;43222;52.912;6.940;2023-03-08T00:22:09;7.75;;;2.60;;
57395;SDS011;43222;52.912;6.940;2023-03-08T00:24:35;4.90;;;2.20;;
57395;SDS011;43222;52.912;6.940;2023-03-08T00:27:02;6.88;;;2.30;;
57395;SDS011;43222;52.912;6.940;2023-03-08T00:29:28;5.60;;;2.40;;
57395;SDS011;43222;52.912;6.940;2023-03-08T00:31:54;6.47;;;2.50;;
57395;SDS011;43222;52.912;6.940;2023-03-08T00:34:20;5.93;;;2.53;;
57395;SDS011;43222;52.912;6.940;2023-03-08T00:36:46;5.20;;;2.42;;
57395;SDS011;43222;52.912;6.940;2023-03-08T00:39:13;5.00;;;2.40;;
57395;SDS011;43222;52.912;6.940;2023-03-08T00:41:40;8.07;;;2.47;;
57395;SDS011;43222;52.912;6.940;2023-03-08T00:44:06;7.07;;;2.95;;
57395;SDS011;43222;52.912;6.940;2023-03-08T00:46:33;5.45;;;2.53;;
57395;SDS011;43222;52.912;6.940;2023-03-08T00:48:59;6.82;;;2.53;;
57395;SDS011;43222;52.912;6.940;2023-03-08T00:51:25;6.25;;;2.83;;
57395;SDS011;43222;52.912;6.940;2023-03-08T00:53:51;6.72;;;2.80;;
57395;SDS011;43222;52.912;6.940;2023-03-08T00:56:17;6.15;;;2.70;;
57395;SDS011;43222;52.912;6.940;2023-03-08T00:58:44;7.72;;;3.10;;
57395;SDS011;43222;52.912;6.940;2023-03-08T01:01:14;8.05;;;3.30;;
57395;SDS011;43222;52.912;6.940;2023-03-08T01:03:40;6.25;;;2.92;;
57395;SDS011;43222;52.912;6.940;2023-03-08T01:06:07;7.95;;;3.40;;
57395;SDS011;43222;52.912;6.940;2023-03-08T01:08:34;8.90;;;3.10;;
57395;SDS011;43222;52.912;6.940;2023-03-08T01:11:00;8.27;;;3.63;;
57395;SDS011;43222;52.912;6.940;2023-03-08T01:13:28;8.30;;;3.30;;
57395;SDS011;43222;52.912;6.940;2023-03-08T01:15:54;9.98;;;4.28;;
57395;SDS011;43222;52.912;6.940;2023-03-08T01:18:20;8.98;;;3.55;;
57395;SDS011;43222;52.912;6.940;2023-03-08T01:23:22;9.25;;;4.13;;
57395;SDS011;43222;52.912;6.940;2023-03-08T01:25:48;8.75;;;4.20;;
57395;SDS011;43222;52.912;6.940;2023-03-08T01:28:14;9.32;;;4.35;;
57395;SDS011;43222;52.912;6.940;2023-03-08T01:30:40;11.32;;;4.28;;
57395;SDS011;43222;52.912;6.940;2023-03-08T01:33:06;9.13;;;4.70;;
57395;SDS011;43222;52.912;6.940;2023-03-08T01:35:32;9.35;;;4.47;;
57395;SDS011;43222;52.912;6.940;2023-03-08T01:37:58;11.23;;;4.28;;
57395;SDS011;43222;52.912;6.940;2023-03-08T01:40:24;8.23;;;4.18;;
57395;SDS011;43222;52.912;6.940;2023-03-08T01:42:50;9.18;;;4.75;;
57395;SDS011;43222;52.912;6.940;2023-03-08T01:48:01;8.65;;;4.65;;
57395;SDS011;43222;52.912;6.940;2023-03-08T01:50:27;10.93;;;4.65;;
57395;SDS011;43222;52.912;6.940;2023-03-08T01:52:53;8.98;;;4.82;;
57395;SDS011;43222;52.912;6.940;2023-03-08T01:55:20;10.98;;;5.22;;
57395;SDS011;43222;52.912;6.940;2023-03-08T01:57:47;8.07;;;4.45;;
57395;SDS011;43222;52.912;6.940;2023-03-08T02:00:15;9.20;;;5.15;;
57395;SDS011;43222;52.912;6.940;2023-03-08T02:02:43;9.98;;;4.88;;
57395;SDS011;43222;52.912;6.940;2023-03-08T02:05:13;9.97;;;5.63;;
57395;SDS011;43222;52.912;6.940;2023-03-08T02:07:39;10.88;;;4.97;;
57395;SDS011;43222;52.912;6.940;2023-03-08T02:10:05;9.57;;;5.78;;
57395;SDS011;43222;52.912;6.940;2023-03-08T02:12:32;14.52;;;6.15;;
57395;SDS011;43222;52.912;6.940;2023-03-08T02:14:58;11.93;;;5.82;;
57395;SDS011;43222;52.912;6.940;2023-03-08T02:17:25;10.77;;;6.20;;
57395;SDS011;43222;52.912;6.940;2023-03-08T02:19:52;12.07;;;6.85;;
57395;SDS011;43222;52.912;6.940;2023-03-08T02:22:20;10.48;;;7.28;;
57395;SDS011;43222;52.912;6.940;2023-03-08T02:24:46;12.27;;;6.97;;
57395;SDS011;43222;52.912;6.940;2023-03-08T02:27:13;14.13;;;7.30;;
57395;SDS011;43222;52.912;6.940;2023-03-08T02:29:42;12.93;;;6.55;;
57395;SDS011;43222;52.912;6.940;2023-03-08T02:32:08;13.60;;;7.15;;
57395;SDS011;43222;52.912;6.940;2023-03-08T02:34:34;13.57;;;7.30;;
57395;SDS011;43222;52.912;6.940;2023-03-08T02:37:00;12.85;;;7.20;;
57395;SDS011;43222;52.912;6.940;2023-03-08T02:39:26;12.05;;;6.93;;
57395;SDS011;43222;52.912;6.940;2023-03-08T02:41:52;12.55;;;6.90;;
57395;SDS011;43222;52.912;6.940;2023-03-08T02:44:18;11.43;;;6.70;;
57395;SDS011;43222;52.912;6.940;2023-03-08T02:46:45;11.35;;;6.70;;
57395;SDS011;43222;52.912;6.940;2023-03-08T02:49:11;12.98;;;6.72;;
57395;SDS011;43222;52.912;6.940;2023-03-08T02:51:37;14.45;;;7.32;;
57395;SDS011;43222;52.912;6.940;2023-03-08T02:54:03;11.52;;;6.70;;
57395;SDS011;43222;52.912;6.940;2023-03-08T02:56:29;11.15;;;7.15;;
57395;SDS011;43222;52.912;6.940;2023-03-08T02:58:55;14.10;;;7.40;;
57395;SDS011;43222;52.912;6.940;2023-03-08T03:01:21;13.43;;;7.55;;
57395;SDS011;43222;52.912;6.940;2023-03-08T03:03:47;13.75;;;7.68;;
57395;SDS011;43222;52.912;6.940;2023-03-08T03:06:15;14.95;;;7.68;;
57395;SDS011;43222;52.912;6.940;2023-03-08T03:08:42;14.48;;;8.02;;
57395;SDS011;43222;52.912;6.940;2023-03-08T03:11:15;13.75;;;7.03;;
57395;SDS011;43222;52.912;6.940;2023-03-08T03:13:42;15.43;;;7.90;;
57395;SDS011;43222;52.912;6.940;2023-03-08T03:16:09;13.18;;;8.02;;
57395;SDS011;43222;52.912;6.940;2023-03-08T03:18:35;13.68;;;7.70;;
57395;SDS011;43222;52.912;6.940;2023-03-08T03:21:02;13.13;;;7.78;;
57395;SDS011;43222;52.912;6.940;2023-03-08T03:23:28;15.77;;;8.68;;
57395;SDS011;43222;52.912;6.940;2023-03-08T03:25:54;13.65;;;8.27;;
57395;SDS011;43222;52.912;6.940;2023-03-08T03:28:20;14.25;;;8.05;;
57395;SDS011;43222;52.912;6.940;2023-03-08T03:30:47;16.73;;;8.70;;
57395;SDS011;43222;52.912;6.940;2023-03-08T03:33:13;15.32;;;8.63;;
57395;SDS011;43222;52.912;6.940;2023-03-08T03:35:39;12.88;;;8.00;;
57395;SDS011;43222;52.912;6.940;2023-03-08T03:38:05;14.40;;;8.80;;
57395;SDS011;43222;52.912;6.940;2023-03-08T03:40:31;14.35;;;8.80;;
57395;SDS011;43222;52.912;6.940;2023-03-08T03:42:57;15.45;;;9.20;;
57395;SDS011;43222;52.912;6.940;2023-03-08T03:45:23;13.45;;;9.25;;
57395;SDS011;43222;52.912;6.940;2023-03-08T03:47:49;14.13;;;9.45;;
57395;SDS011;43222;52.912;6.940;2023-03-08T03:50:15;15.63;;;10.13;;
57395;SDS011;43222;52.912;6.940;2023-03-08T03:52:41;14.98;;;9.50;;
57395;SDS011;43222;52.912;6.940;2023-03-08T03:55:07;14.13;;;9.63;;
57395;SDS011;43222;52.912;6.940;2023-03-08T03:57:34;17.45;;;10.30;;
57395;SDS011;43222;52.912;6.940;2023-03-08T04:00:00;15.48;;;9.52;;
57395;SDS011;43222;52.912;6.940;2023-03-08T04:02:26;18.45;;;9.65;;
57395;SDS011;43222;52.912;6.940;2023-03-08T04:04:53;20.77;;;10.30;;
57395;SDS011;43222;52.912;6.940;2023-03-08T04:07:19;18.48;;;9.77;;
57395;SDS011;43222;52.912;6.940;2023-03-08T04:09:45;14.35;;;9.85;;
57395;SDS011;43222;52.912;6.940;2023-03-08T04:12:12;16.90;;;10.35;;
57395;SDS011;43222;52.912;6.940;2023-03-08T04:14:38;18.55;;;10.43;;
57395;SDS011;43222;52.912;6.940;2023-03-08T04:17:05;17.77;;;10.63;;
57395;SDS011;43222;52.912;6.940;2023-03-08T04:19:32;15.82;;;10.55;;
57395;SDS011;43222;52.912;6.940;2023-03-08T04:21:58;14.23;;;9.48;;
57395;SDS011;43222;52.912;6.940;2023-03-08T04:24:24;16.00;;;10.80;;
57395;SDS011;43222;52.912;6.940;2023-03-08T04:26:50;17.35;;;10.32;;
57395;SDS011;43222;52.912;6.940;2023-03-08T04:29:16;19.42;;;11.00;;
57395;SDS011;43222;52.912;6.940;2023-03-08T04:31:42;15.07;;;10.00;;
57395;SDS011;43222;52.912;6.940;2023-03-08T04:34:08;20.58;;;12.13;;
57395;SDS011;43222;52.912;6.940;2023-03-08T04:36:35;28.50;;;15.48;;
57395;SDS011;43222;52.912;6.940;2023-03-08T04:39:02;21.77;;;13.75;;
57395;SDS011;43222;52.912;6.940;2023-03-08T04:41:28;18.33;;;11.30;;
57395;SDS011;43222;52.912;6.940;2023-03-08T04:43:55;17.02;;;10.88;;
57395;SDS011;43222;52.912;6.940;2023-03-08T04:46:22;22.58;;;10.77;;
57395;SDS011;43222;52.912;6.940;2023-03-08T04:48:49;15.25;;;10.88;;
57395;SDS011;43222;52.912;6.940;2023-03-08T04:51:19;17.35;;;10.40;;
57395;SDS011;43222;52.912;6.940;2023-03-08T04:53:46;16.48;;;11.18;;
57395;SDS011;43222;52.912;6.940;2023-03-08T04:56:13;19.95;;;11.15;;
57395;SDS011;43222;52.912;6.940;2023-03-08T04:58:39;19.17;;;12.05;;
57395;SDS011;43222;52.912;6.940;2023-03-08T05:01:12;16.35;;;11.88;;
57395;SDS011;43222;52.912;6.940;2023-03-08T05:03:39;22.95;;;12.57;;
57395;SDS011;43222;52.912;6.940;2023-03-08T05:06:05;17.95;;;11.52;;
57395;SDS011;43222;52.912;6.940;2023-03-08T05:08:31;18.25;;;11.80;;
57395;SDS011;43222;52.912;6.940;2023-03-08T05:10:58;20.02;;;13.50;;
57395;SDS011;43222;52.912;6.940;2023-03-08T05:13:25;18.90;;;12.27;;
57395;SDS011;43222;52.912;6.940;2023-03-08T05:15:51;19.15;;;12.60;;
57395;SDS011;43222;52.912;6.940;2023-03-08T05:18:17;16.13;;;11.40;;
57395;SDS011;43222;52.912;6.940;2023-03-08T05:20:43;16.63;;;11.45;;
57395;SDS011;43222;52.912;6.940;2023-03-08T05:23:10;22.02;;;12.73;;
57395;SDS011;43222;52.912;6.940;2023-03-08T05:25:42;24.00;;;11.90;;
57395;SDS011;43222;52.912;6.940;2023-03-08T05:28:08;17.58;;;12.20;;
57395;SDS011;43222;52.912;6.940;2023-03-08T05:30:39;17.73;;;12.02;;
57395;SDS011;43222;52.912;6.940;2023-03-08T05:33:05;16.50;;;11.55;;
57395;SDS011;43222;52.912;6.940;2023-03-08T05:35:31;18.50;;;13.52;;
57395;SDS011;43222;52.912;6.940;2023-03-08T05:37:57;19.02;;;12.60;;
57395;SDS011;43222;52.912;6.940;2023-03-08T05:40:23;16.35;;;11.23;;
57395;SDS011;43222;52.912;6.940;2023-03-08T05:42:49;15.75;;;10.98;;
57395;SDS011;43222;52.912;6.940;2023-03-08T05:45:16;18.27;;;11.77;;
57395;SDS011;43222;52.912;6.940;2023-03-08T05:47:42;18.65;;;11.98;;
57395;SDS011;43222;52.912;6.940;2023-03-08T05:50:09;17.67;;;11.00;;
57395;SDS011;43222;52.912;6.940;2023-03-08T05:52:35;18.48;;;11.55;;
57395;SDS011;43222;52.912;6.940;2023-03-08T05:55:01;16.33;;;11.60;;
57395;SDS011;43222;52.912;6.940;2023-03-08T05:57:28;18.08;;;11.88;;
57395;SDS011;43222;52.912;6.940;2023-03-08T05:59:54;16.92;;;12.18;;
57395;SDS011;43222;52.912;6.940;2023-03-08T06:02:20;15.88;;;11.23;;
57395;SDS011;43222;52.912;6.940;2023-03-08T06:04:46;15.45;;;11.15;;
57395;SDS011;43222;52.912;6.940;2023-03-08T06:07:12;16.55;;;10.95;;
57395;SDS011;43222;52.912;6.940;2023-03-08T06:09:38;19.17;;;11.77;;
57395;SDS011;43222;52.912;6.940;2023-03-08T06:12:04;15.25;;;10.98;;
57395;SDS011;43222;52.912;6.940;2023-03-08T06:14:30;18.85;;;11.57;;
57395;SDS011;43222;52.912;6.940;2023-03-08T06:16:56;16.77;;;11.30;;
57395;SDS011;43222;52.912;6.940;2023-03-08T06:19:22;16.73;;;11.05;;
57395;SDS011;43222;52.912;6.940;2023-03-08T06:21:48;15.93;;;11.05;;
57395;SDS011;43222;52.912;6.940;2023-03-08T06:24:14;17.15;;;11.25;;
57395;SDS011;43222;52.912;6.940;2023-03-08T06:26:40;17.05;;;10.80;;
57395;SDS011;43222;52.912;6.940;2023-03-08T06:29:06;16.10;;;11.15;;
57395;SDS011;43222;52.912;6.940;2023-03-08T06:31:32;16.67;;;11.43;;
57395;SDS011;43222;52.912;6.940;2023-03-08T06:33:58;18.08;;;11.30;;
57395;SDS011;43222;52.912;6.940;2023-03-08T06:36:24;16.80;;;11.18;;
57395;SDS011;43222;52.912;6.940;2023-03-08T06:38:51;16.27;;;10.95;;
57395;SDS011;43222;52.912;6.940;2023-03-08T06:41:17;16.30;;;10.98;;
57395;SDS011;43222;52.912;6.940;2023-03-08T06:43:44;16.05;;;11.43;;
57395;SDS011;43222;52.912;6.940;2023-03-08T06:46:11;16.33;;;10.93;;
57395;SDS011;43222;52.912;6.940;2023-03-08T06:48:38;15.10;;;10.98;;
57395;SDS011;43222;52.912;6.940;2023-03-08T06:51:05;15.57;;;10.82;;
57395;SDS011;43222;52.912;6.940;2023-03-08T06:53:31;15.00;;;10.30;;
57395;SDS011;43222;52.912;6.940;2023-03-08T06:56:00;17.05;;;10.98;;
57395;SDS011;43222;52.912;6.940;2023-03-08T06:58:27;17.15;;;10.68;;
57395;SDS011;43222;52.912;6.940;2023-03-08T07:00:53;18.02;;;11.50;;
57395;SDS011;43222;52.912;6.940;2023-03-08T07:03:19;16.67;;;11.02;;
57395;SDS011;43222;52.912;6.940;2023-03-08T07:05:46;16.92;;;10.65;;
57395;SDS011;43222;52.912;6.940;2023-03-08T07:08:13;17.92;;;11.20;;
57395;SDS011;43222;52.912;6.940;2023-03-08T07:10:39;15.50;;;10.77;;
57395;SDS011;43222;52.912;6.940;2023-03-08T07:13:05;14.73;;;10.63;;
57395;SDS011;43222;52.912;6.940;2023-03-08T07:15:31;16.27;;;9.70;;
57395;SDS011;43222;52.912;6.940;2023-03-08T07:17:57;14.10;;;9.30;;
57395;SDS011;43222;52.912;6.940;2023-03-08T07:20:24;14.38;;;8.60;;
57395;SDS011;43222;52.912;6.940;2023-03-08T07:22:50;16.92;;;9.25;;
57395;SDS011;43222;52.912;6.940;2023-03-08T07:25:17;12.32;;;8.73;;
57395;SDS011;43222;52.912;6.940;2023-03-08T07:27:44;14.02;;;9.75;;
57395;SDS011;43222;52.912;6.940;2023-03-08T07:30:11;13.65;;;9.35;;
57395;SDS011;43222;52.912;6.940;2023-03-08T07:32:38;15.68;;;9.95;;
57395;SDS011;43222;52.912;6.940;2023-03-08T07:35:05;13.50;;;8.90;;
57395;SDS011;43222;52.912;6.940;2023-03-08T07:37:31;18.25;;;9.38;;
57395;SDS011;43222;52.912;6.940;2023-03-08T07:39:57;13.27;;;9.52;;
57395;SDS011;43222;52.912;6.940;2023-03-08T07:42:23;13.93;;;9.70;;
57395;SDS011;43222;52.912;6.940;2023-03-08T07:44:51;16.90;;;9.95;;
57395;SDS011;43222;52.912;6.940;2023-03-08T07:47:17;14.80;;;9.98;;
57395;SDS011;43222;52.912;6.940;2023-03-08T07:49:43;15.48;;;10.07;;
57395;SDS011;43222;52.912;6.940;2023-03-08T07:52:09;13.63;;;10.00;;
57395;SDS011;43222;52.912;6.940;2023-03-08T07:54:35;15.48;;;9.90;;
57395;SDS011;43222;52.912;6.940;2023-03-08T07:57:01;15.88;;;10.40;;
57395;SDS011;43222;52.912;6.940;2023-03-08T07:59:28;14.13;;;9.52;;
57395;SDS011;43222;52.912;6.940;2023-03-08T08:01:54;15.82;;;10.27;;
57395;SDS011;43222;52.912;6.940;2023-03-08T08:04:20;17.23;;;11.02;;
57395;SDS011;43222;52.912;6.940;2023-03-08T08:06:47;17.67;;;11.20;;
57395;SDS011;43222;52.912;6.940;2023-03-08T08:09:13;17.67;;;11.55;;
57395;SDS011;43222;52.912;6.940;2023-03-08T08:11:41;17.25;;;11.82;;
57395;SDS011;43222;52.912;6.940;2023-03-08T08:14:07;19.50;;;12.20;;
57395;SDS011;43222;52.912;6.940;2023-03-08T08:16:33;20.13;;;12.02;;
57395;SDS011;43222;52.912;6.940;2023-03-08T08:19:01;16.52;;;12.57;;
57395;SDS011;43222;52.912;6.940;2023-03-08T08:21:27;18.00;;;12.60;;
57395;SDS011;43222;52.912;6.940;2023-03-08T08:23:53;19.13;;;13.25;;
57395;SDS011;43222;52.912;6.940;2023-03-08T08:26:22;22.48;;;14.30;;
57395;SDS011;43222;52.912;6.940;2023-03-08T08:28:49;22.55;;;14.70;;
57395;SDS011;43222;52.912;6.940;2023-03-08T08:31:17;28.00;;;17.92;;
57395;SDS011;43222;52.912;6.940;2023-03-08T08:33:43;31.23;;;19.88;;
57395;SDS011;43222;52.912;6.940;2023-03-08T08:36:13;28.98;;;19.27;;
57395;SDS011;43222;52.912;6.940;2023-03-08T08:38:40;39.90;;;19.05;;
57395;SDS011;43222;52.912;6.940;2023-03-08T08:41:07;31.95;;;20.73;;
57395;SDS011;43222;52.912;6.940;2023-03-08T08:43:37;35.00;;;21.35;;
57395;SDS011;43222;52.912;6.940;2023-03-08T08:46:03;40.50;;;21.50;;
57395;SDS011;43222;52.912;6.940;2023-03-08T08:48:30;40.45;;;22.23;;
57395;SDS011;43222;52.912;6.940;2023-03-08T08:51:00;38.55;;;22.63;;
57395;SDS011;43222;52.912;6.940;2023-03-08T08:53:26;36.05;;;21.98;;
57395;SDS011;43222;52.912;6.940;2023-03-08T08:55:53;38.65;;;20.88;;
57395;SDS011;43222;52.912;6.940;2023-03-08T08:58:19;79.18;;;24.23;;
57395;SDS011;43222;52.912;6.940;2023-03-08T09:00:45;37.70;;;21.38;;
57395;SDS011;43222;52.912;6.940;2023-03-08T09:03:11;45.35;;;22.55;;
57395;SDS011;43222;52.912;6.940;2023-03-08T09:05:38;31.48;;;19.60;;
57395;SDS011;43222;52.912;6.940;2023-03-08T09:08:04;29.15;;;18.92;;
57395;SDS011;43222;52.912;6.940;2023-03-08T09:10:32;30.30;;;18.73;;
57395;SDS011;43222;52.912;6.940;2023-03-08T09:12:59;56.85;;;18.95;;
57395;SDS011;43222;52.912;6.940;2023-03-08T09:15:25;40.53;;;20.25;;
57395;SDS011;43222;52.912;6.940;2023-03-08T09:17:51;39.97;;;19.48;;
57395;SDS011;43222;52.912;6.940;2023-03-08T09:20:20;34.40;;;18.58;;
57395;SDS011;43222;52.912;6.940;2023-03-08T09:22:46;31.45;;;18.25;;
57395;SDS011;43222;52.912;6.940;2023-03-08T09:25:13;27.95;;;18.63;;
57395;SDS011;43222;52.912;6.940;2023-03-08T09:27:39;32.90;;;18.85;;
57395;SDS011;43222;52.912;6.940;2023-03-08T09:30:09;31.55;;;18.17;;
57395;SDS011;43222;52.912;6.940;2023-03-08T09:32:36;27.95;;;17.30;;
57395;SDS011;43222;52.912;6.940;2023-03-08T09:35:03;31.52;;;18.20;;
57395;SDS011;43222;52.912;6.940;2023-03-08T09:37:29;40.90;;;18.98;;
57395;SDS011;43222;52.912;6.940;2023-03-08T09:39:55;29.17;;;17.77;;
57395;SDS011;43222;52.912;6.940;2023-03-08T09:42:23;33.95;;;17.92;;
57395;SDS011;43222;52.912;6.940;2023-03-08T09:47:32;27.92;;;18.92;;
57395;SDS011;43222;52.912;6.940;2023-03-08T09:50:05;27.15;;;17.92;;
57395;SDS011;43222;52.912;6.940;2023-03-08T09:52:36;28.15;;;18.20;;
57395;SDS011;43222;52.912;6.940;2023-03-08T09:55:03;50.50;;;20.35;;
57395;SDS011;43222;52.912;6.940;2023-03-08T09:57:34;41.92;;;21.08;;
57395;SDS011;43222;52.912;6.940;2023-03-08T10:00:03;30.50;;;19.23;;
57395;SDS011;43222;52.912;6.940;2023-03-08T10:07:44;37.58;;;19.10;;
57395;SDS011;43222;52.912;6.940;2023-03-08T10:10:21;28.02;;;18.38;;
57395;SDS011;43222;52.912;6.940;2023-03-08T10:15:35;34.80;;;19.77;;
57395;SDS011;43222;52.912;6.940;2023-03-08T10:20:49;42.88;;;16.48;;
57395;SDS011;43222;52.912;6.940;2023-03-08T10:23:16;25.38;;;17.00;;
57395;SDS011;43222;52.912;6.940;2023-03-08T10:25:43;28.20;;;16.88;;
57395;SDS011;43222;52.912;6.940;2023-03-08T10:28:16;28.17;;;16.52;;
57395;SDS011;43222;52.912;6.940;2023-03-08T10:30:46;46.25;;;18.20;;
57395;SDS011;43222;52.912;6.940;2023-03-08T10:33:14;39.42;;;17.50;;
57395;SDS011;43222;52.912;6.940;2023-03-08T10:38:24;27.90;;;17.02;;
57395;SDS011;43222;52.912;6.940;2023-03-08T10:40:57;28.67;;;17.35;;
57395;SDS011;43222;52.912;6.940;2023-03-08T10:43:26;28.63;;;18.02;;
57395;SDS011;43222;52.912;6.940;2023-03-08T10:46:03;24.33;;;17.77;;
57395;SDS011;43222;52.912;6.940;2023-03-08T10:48:30;29.25;;;18.70;;
57395;SDS011;43222;52.912;6.940;2023-03-08T10:51:00;28.15;;;18.30;;
57395;SDS011;43222;52.912;6.940;2023-03-08T10:53:27;30.90;;;19.45;;
57395;SDS011;43222;52.912;6.940;2023-03-08T10:55:53;29.67;;;20.27;;
57395;SDS011;43222;52.912;6.940;2023-03-08T10:58:36;32.58;;;20.77;;
57395;SDS011;43222;52.912;6.940;2023-03-08T11:01:24;32.33;;;20.85;;
57395;SDS011;43222;52.912;6.940;2023-03-08T11:04:05;29.90;;;20.25;;
57395;SDS011;43222;52.912;6.940;2023-03-08T11:06:32;28.63;;;19.38;;
57395;SDS011;43222;52.912;6.940;2023-03-08T11:09:02;28.80;;;19.55;;
57395;SDS011;43222;52.912;6.940;2023-03-08T11:11:38;27.42;;;19.00;;
57395;SDS011;43222;52.912;6.940;2023-03-08T11:14:04;25.60;;;18.13;;
57395;SDS011;43222;52.912;6.940;2023-03-08T11:24:20;25.88;;;17.30;;
57395;SDS011;43222;52.912;6.940;2023-03-08T11:26:55;24.83;;;16.95;;
57395;SDS011;43222;52.912;6.940;2023-03-08T11:34:38;26.80;;;18.02;;
57395;SDS011;43222;52.912;6.940;2023-03-08T11:37:12;22.67;;;16.52;;
57395;SDS011;43222;52.912;6.940;2023-03-08T11:39:43;24.98;;;17.00;;
57395;SDS011;43222;52.912;6.940;2023-03-08T11:44:59;25.75;;;17.25;;
57395;SDS011;43222;52.912;6.940;2023-03-08T11:50:08;28.10;;;19.10;;
57395;SDS011;43222;52.912;6.940;2023-03-08T11:55:12;27.77;;;16.73;;
57395;SDS011;43222;52.912;6.940;2023-03-08T11:57:46;23.10;;;15.15;;
57395;SDS011;43222;52.912;6.940;2023-03-08T12:02:45;21.83;;;13.93;;
57395;SDS011;43222;52.912;6.940;2023-03-08T12:07:46;20.05;;;13.52;;
57395;SDS011;43222;52.912;6.940;2023-03-08T12:12:43;22.10;;;15.73;;
57395;SDS011;43222;52.912;6.940;2023-03-08T12:17:54;23.67;;;15.57;;
57395;SDS011;43222;52.912;6.940;2023-03-08T12:20:21;23.92;;;15.13;;
57395;SDS011;43222;52.912;6.940;2023-03-08T12:27:54;22.88;;;14.82;;
57395;SDS011;43222;52.912;6.940;2023-03-08T12:33:07;24.08;;;16.17;;
57395;SDS011;43222;52.912;6.940;2023-03-08T12:35:36;23.50;;;14.88;;
57395;SDS011;43222;52.912;6.940;2023-03-08T12:38:04;29.63;;;16.05;;
57395;SDS011;43222;52.912;6.940;2023-03-08T12:40:36;26.95;;;16.80;;
57395;SDS011;43222;52.912;6.940;2023-03-08T12:43:03;28.48;;;18.23;;
57395;SDS011;43222;52.912;6.940;2023-03-08T12:45:30;29.55;;;17.88;;
57395;SDS011;43222;52.912;6.940;2023-03-08T12:48:17;30.58;;;18.52;;
57395;SDS011;43222;52.912;6.940;2023-03-08T12:50:53;32.65;;;17.83;;
57395;SDS011;43222;52.912;6.940;2023-03-08T12:53:31;36.22;;;20.15;;
57395;SDS011;43222;52.912;6.940;2023-03-08T12:55:58;37.90;;;20.75;;
57395;SDS011;43222;52.912;6.940;2023-03-08T12:58:24;35.88;;;20.40;;
57395;SDS011;43222;52.912;6.940;2023-03-08T13:00:56;39.47;;;21.13;;
57395;SDS011;43222;52.912;6.940;2023-03-08T13:03:28;38.13;;;19.50;;
57395;SDS011;43222;52.912;6.940;2023-03-08T13:05:54;39.78;;;20.17;;
57395;SDS011;43222;52.912;6.940;2023-03-08T13:11:12;34.90;;;20.70;;
57395;SDS011;43222;52.912;6.940;2023-03-08T13:16:20;29.35;;;16.38;;
57395;SDS011;43222;52.912;6.940;2023-03-08T13:18:48;28.92;;;15.93;;
57395;SDS011;43222;52.912;6.940;2023-03-08T13:21:28;18.05;;;10.38;;
57395;SDS011;43222;52.912;6.940;2023-03-08T13:24:01;20.45;;;12.07;;
57395;SDS011;43222;52.912;6.940;2023-03-08T13:28:56;18.85;;;9.63;;
57395;SDS011;43222;52.912;6.940;2023-03-08T13:31:26;19.35;;;9.93;;
57395;SDS011;43222;52.912;6.940;2023-03-08T13:33:54;15.63;;;8.98;;
57395;SDS011;43222;52.912;6.940;2023-03-08T13:39:06;19.08;;;10.43;;
57395;SDS011;43222;52.912;6.940;2023-03-08T13:41:39;14.07;;;8.00;;
57395;SDS011;43222;52.912;6.940;2023-03-08T13:44:16;14.90;;;7.93;;
57395;SDS011;43222;52.912;6.940;2023-03-08T13:46:43;13.18;;;7.68;;
57395;SDS011;43222;52.912;6.940;2023-03-08T13:49:13;14.43;;;7.70;;
57395;SDS011;43222;52.912;6.940;2023-03-08T13:51:41;15.00;;;8.25;;
57395;SDS011;43222;52.912;6.940;2023-03-08T13:54:11;13.93;;;7.63;;
57395;SDS011;43222;52.912;6.940;2023-03-08T13:56:39;13.90;;;7.95;;
57395;SDS011;43222;52.912;6.940;2023-03-08T13:59:05;12.93;;;7.45;;
57395;SDS011;43222;52.912;6.940;2023-03-08T14:01:32;16.50;;;9.05;;
57395;SDS011;43222;52.912;6.940;2023-03-08T14:03:58;13.88;;;7.95;;
57395;SDS011;43222;52.912;6.940;2023-03-08T14:06:34;17.83;;;9.32;;
57395;SDS011;43222;52.912;6.940;2023-03-08T14:09:02;20.08;;;10.75;;
57395;SDS011;43222;52.912;6.940;2023-03-08T14:11:33;13.18;;;8.15;;
57395;SDS011;43222;52.912;6.940;2023-03-08T14:14:00;13.63;;;7.20;;
57395;SDS011;43222;52.912;6.940;2023-03-08T14:18:55;13.05;;;7.97;;
57395;SDS011;43222;52.912;6.940;2023-03-08T14:21:22;12.25;;;7.25;;
57395;SDS011;43222;52.912;6.940;2023-03-08T14:23:56;12.90;;;7.45;;
57395;SDS011;43222;52.912;6.940;2023-03-08T14:26:33;13.50;;;7.28;;
57395;SDS011;43222;52.912;6.940;2023-03-08T14:29:08;11.75;;;6.68;;
57395;SDS011;43222;52.912;6.940;2023-03-08T14:31:35;12.02;;;6.47;;
57395;SDS011;43222;52.912;6.940;2023-03-08T14:34:03;12.52;;;7.13;;
57395;SDS011;43222;52.912;6.940;2023-03-08T14:36:30;11.90;;;6.80;;
57395;SDS011;43222;52.912;6.940;2023-03-08T14:38:56;12.88;;;6.70;;
57395;SDS011;43222;52.912;6.940;2023-03-08T14:41:30;13.63;;;6.82;;
57395;SDS011;43222;52.912;6.940;2023-03-08T14:43:56;10.52;;;5.93;;
57395;SDS011;43222;52.912;6.940;2023-03-08T14:46:22;11.07;;;5.88;;
57395;SDS011;43222;52.912;6.940;2023-03-08T14:48:55;10.85;;;6.00;;
57395;SDS011;43222;52.912;6.940;2023-03-08T14:51:29;11.02;;;6.30;;
57395;SDS011;43222;52.912;6.940;2023-03-08T14:54:03;10.70;;;5.32;;
57395;SDS011;43222;52.912;6.940;2023-03-08T14:56:30;10.90;;;5.63;;
57395;SDS011;43222;52.912;6.940;2023-03-08T14:59:00;11.25;;;6.63;;
57395;SDS011;43222;52.912;6.940;2023-03-08T15:01:31;9.73;;;5.30;;
57395;SDS011;43222;52.912;6.940;2023-03-08T15:03:58;11.43;;;6.13;;
57395;SDS011;43222;52.912;6.940;2023-03-08T15:06:28;8.40;;;4.65;;
57395;SDS011;43222;52.912;6.940;2023-03-08T15:08:55;10.95;;;5.82;;
57395;SDS011;43222;52.912;6.940;2023-03-08T15:11:22;9.15;;;4.60;;
57395;SDS011;43222;52.912;6.940;2023-03-08T15:13:48;7.78;;;4.60;;
57395;SDS011;43222;52.912;6.940;2023-03-08T15:16:14;9.90;;;5.03;;
57395;SDS011;43222;52.912;6.940;2023-03-08T15:18:41;10.25;;;4.10;;
57395;SDS011;43222;52.912;6.940;2023-03-08T15:21:10;8.30;;;4.00;;
57395;SDS011;43222;52.912;6.940;2023-03-08T15:23:38;9.40;;;4.47;;
57395;SDS011;43222;52.912;6.940;2023-03-08T15:26:04;8.00;;;4.45;;
57395;SDS011;43222;52.912;6.940;2023-03-08T15:28:31;8.40;;;4.22;;
57395;SDS011;43222;52.912;6.940;2023-03-08T15:30:57;7.45;;;4.20;;
57395;SDS011;43222;52.912;6.940;2023-03-08T15:33:23;10.50;;;4.55;;
57395;SDS011;43222;52.912;6.940;2023-03-08T15:35:49;7.90;;;3.78;;
57395;SDS011;43222;52.912;6.940;2023-03-08T15:38:16;7.22;;;3.45;;
57395;SDS011;43222;52.912;6.940;2023-03-08T15:40:43;10.98;;;4.30;;
57395;SDS011;43222;52.912;6.940;2023-03-08T15:43:09;10.63;;;4.07;;
57395;SDS011;43222;52.912;6.940;2023-03-08T15:45:35;9.60;;;3.28;;